Time,TemperatureF,DewpointF,PressureIn,WindDirection,WindDirectionDegrees,WindSpeedMPH,WindSpeedGustMPH,Humidity,HourlyPrecipIn,Conditions,Clouds,dailyrainin,SoftwareType,DateUTC
2013-06-20 00:01:00,61.0,10.0,-100.00,WSW,241,6.0,7.0,13,0.00,,,-99.99,,2013-06-20 06:01:00,
2013-06-20 00:12:00,-999.0,-99.9,-100.00,WSW,244,8.0,9.0,-999,-99.99,,,-99.99,,2013-06-20 06:12:00,
2013-06-20 00:22:00,60.0,11.0,-100.00,SW,236,6.0,9.0,14,0.00,,,-99.99,,2013-06-20 06:22:00,
2013-06-20 00:33:00,58.0,10.0,-100.00,SW,220,4.0,6.0,15,0.00,,,-99.99,,2013-06-20 06:33:00,
2013-06-20 00:43:00,58.0,10.0,-100.00,SSW,203,4.0,6.0,14,0.00,,,-99.99,,2013-06-20 06:43:00,
2013-06-20 00:53:00,57.0,16.0,-100.00,NW,304,10.0,16.0,20,0.00,,,-99.99,,2013-06-20 06:53:00,
2013-06-20 01:01:00,56.0,18.0,-100.00,NNW,328,12.0,18.0,23,0.00,,,-99.99,,2013-06-20 07:01:00,
2013-06-20 01:12:00,56.0,20.0,-100.00,NNW,328,14.0,21.0,24,0.00,,,-99.99,,2013-06-20 07:12:00,
2013-06-20 01:22:00,54.0,20.0,-100.00,NNW,340,15.0,22.0,26,0.00,,,-99.99,,2013-06-20 07:22:00,
2013-06-20 01:34:00,54.0,20.0,-100.00,NNW,332,14.0,20.0,25,0.00,,,-99.99,,2013-06-20 07:34:00,
2013-06-20 01:43:00,55.0,19.0,-100.00,NW,318,19.0,30.0,24,0.00,,,-99.99,,2013-06-20 07:43:00,
2013-06-20 01:52:00,54.0,19.0,-100.00,NNW,335,15.0,27.0,25,0.00,,,-99.99,,2013-06-20 07:52:00,
2013-06-20 02:02:00,54.0,18.0,-100.00,NNW,335,19.0,26.0,25,0.00,,,-99.99,,2013-06-20 08:02:00,
2013-06-20 02:11:00,53.0,18.0,-100.00,NNW,335,19.0,26.0,25,0.00,,,-99.99,,2013-06-20 08:11:00,
2013-06-20 02:22:00,53.0,18.0,-100.00,NW,312,19.0,24.0,25,0.00,,,-99.99,,2013-06-20 08:22:00,
2013-06-20 02:34:00,52.0,18.0,-100.00,NW,308,19.0,26.0,25,0.00,,,-99.99,,2013-06-20 08:34:00,
2013-06-20 02:43:00,52.0,18.0,-100.00,NW,305,18.0,23.0,25,0.00,,,-99.99,,2013-06-20 08:43:00,
2013-06-20 02:52:00,52.0,18.0,-100.00,NW,305,18.0,26.0,26,0.00,,,-99.99,,2013-06-20 08:52:00,
2013-06-20 03:01:00,51.0,18.0,-100.00,NW,305,19.0,24.0,27,0.00,,,-99.99,,2013-06-20 09:01:00,
2013-06-20 03:11:00,51.0,17.0,-100.00,WNW,289,16.0,29.0,26,0.00,,,-99.99,,2013-06-20 09:11:00,
2013-06-20 03:22:00,51.0,18.0,-100.00,NW,306,21.0,32.0,26,0.00,,,-99.99,,2013-06-20 09:22:00,
2013-06-20 03:33:00,51.0,17.0,-100.00,NW,306,19.0,27.0,27,0.00,,,-99.99,,2013-06-20 09:33:00,
2013-06-20 03:42:00,50.0,17.0,-100.00,NW,308,19.0,27.0,27,0.00,,,-99.99,,2013-06-20 09:42:00,
2013-06-20 03:52:00,50.0,17.0,-100.00,WNW,301,17.0,26.0,27,0.00,,,-99.99,,2013-06-20 09:52:00,
2013-06-20 04:01:00,50.0,16.0,-100.00,NW,305,19.0,25.0,26,0.00,,,-99.99,,2013-06-20 10:01:00,
2013-06-20 04:11:00,50.0,16.0,-100.00,NW,309,20.0,26.0,26,0.00,,,-99.99,,2013-06-20 10:11:00,
2013-06-20 04:22:00,50.0,16.0,-100.00,NW,305,19.0,24.0,25,0.00,,,-99.99,,2013-06-20 10:22:00,
2013-06-20 04:33:00,50.0,16.0,-100.00,NW,306,18.0,25.0,25,0.00,,,-99.99,,2013-06-20 10:33:00,
2013-06-20 04:43:00,50.0,16.0,-100.00,NW,309,21.0,29.0,25,0.00,,,-99.99,,2013-06-20 10:43:00,
2013-06-20 04:53:00,49.0,16.0,-100.00,NW,305,20.0,27.0,27,0.00,,,-99.99,,2013-06-20 10:53:00,
2013-06-20 05:02:00,48.0,17.0,-100.00,NW,306,21.0,29.0,28,0.00,,,-99.99,,2013-06-20 11:02:00,
2013-06-20 05:11:00,47.0,17.0,-100.00,NW,306,20.0,25.0,29,0.00,,,-99.99,,2013-06-20 11:11:00,
2013-06-20 05:22:00,48.0,16.0,-100.00,NW,308,18.0,24.0,28,0.00,,,-99.99,,2013-06-20 11:22:00,
2013-06-20 05:34:00,47.0,16.0,-100.00,NW,305,21.0,30.0,28,0.00,,,-99.99,,2013-06-20 11:34:00,
2013-06-20 05:42:00,47.0,16.0,-100.00,NW,305,22.0,32.0,28,0.00,,,-99.99,,2013-06-20 11:42:00,
2013-06-20 05:53:00,47.0,15.0,-100.00,NW,304,17.0,24.0,28,0.00,,,-99.99,,2013-06-20 11:53:00,
2013-06-20 06:02:00,46.0,16.0,-100.00,WNW,302,17.0,22.0,29,0.00,,,-99.99,,2013-06-20 12:02:00,
2013-06-20 06:11:00,46.0,16.0,-100.00,WNW,302,18.0,23.0,29,0.00,,,-99.99,,2013-06-20 12:11:00,
2013-06-20 06:22:00,46.0,15.0,-100.00,NW,304,17.0,21.0,29,0.00,,,-99.99,,2013-06-20 12:22:00,
2013-06-20 06:34:00,46.0,15.0,-100.00,NW,304,17.0,21.0,29,0.00,,,-99.99,,2013-06-20 12:34:00,
2013-06-20 06:43:00,46.0,15.0,-100.00,NW,304,17.0,21.0,29,0.00,,,-99.99,,2013-06-20 12:43:00,
2013-06-20 06:53:00,46.0,16.0,-100.00,NW,304,16.0,19.0,29,0.00,,,-99.99,,2013-06-20 12:53:00,
2013-06-20 07:02:00,47.0,17.0,-100.00,NW,306,15.0,19.0,29,0.00,,,-99.99,,2013-06-20 13:02:00,
2013-06-20 07:11:00,48.0,16.0,-100.00,NW,309,15.0,21.0,27,0.00,,,-99.99,,2013-06-20 13:11:00,
2013-06-20 07:22:00,49.0,15.0,-100.00,NW,309,15.0,21.0,25,0.00,,,-99.99,,2013-06-20 13:22:00,
2013-06-20 07:33:00,49.0,14.0,-100.00,NW,309,15.0,21.0,24,0.00,,,-99.99,,2013-06-20 13:33:00,
2013-06-20 07:42:00,50.0,13.0,-100.00,NW,309,16.0,23.0,22,0.00,,,-99.99,,2013-06-20 13:42:00,
2013-06-20 07:53:00,50.0,14.0,-100.00,NW,311,17.0,24.0,23,0.00,,,-99.99,,2013-06-20 13:53:00,
2013-06-20 08:01:00,50.0,10.0,-100.00,NW,312,17.0,24.0,19,0.00,,,-99.99,,2013-06-20 14:01:00,
2013-06-20 08:11:00,51.0,11.0,-100.00,NW,313,20.0,26.0,20,0.00,,,-99.99,,2013-06-20 14:11:00,
2013-06-20 08:22:00,51.0,9.0,-100.00,NW,309,18.0,26.0,18,0.00,,,-99.99,,2013-06-20 14:22:00,
2013-06-20 08:32:00,51.0,8.0,-100.00,NW,315,17.0,21.0,17,0.00,,,-99.99,,2013-06-20 14:32:00,
2013-06-20 08:42:00,52.0,7.0,-100.00,NW,316,18.0,24.0,16,0.00,,,-99.99,,2013-06-20 14:42:00,
2013-06-20 08:53:00,53.0,9.0,-100.00,NW,319,19.0,24.0,17,0.00,,,-99.99,,2013-06-20 14:53:00,
2013-06-20 09:01:00,52.0,11.0,-100.00,NW,306,16.0,24.0,19,0.00,,,-99.99,,2013-06-20 15:01:00,
2013-06-20 09:11:00,53.0,10.0,-100.00,NW,309,14.0,21.0,17,0.00,,,-99.99,,2013-06-20 15:11:00,
2013-06-20 09:22:00,53.0,12.0,-100.00,NNW,329,12.0,18.0,19,0.00,,,-99.99,,2013-06-20 15:22:00,
2013-06-20 09:33:00,54.0,12.0,-100.00,NNW,329,12.0,19.0,19,0.00,,,-99.99,,2013-06-20 15:33:00,
2013-06-20 09:43:00,55.0,14.0,-100.00,NNW,329,12.0,16.0,20,0.00,,,-99.99,,2013-06-20 15:43:00,
2013-06-20 09:52:00,56.0,13.0,-100.00,NNW,328,13.0,19.0,18,0.00,,,-99.99,,2013-06-20 15:52:00,
2013-06-20 10:01:00,56.0,13.0,-100.00,NNW,329,13.0,17.0,18,0.00,,,-99.99,,2013-06-20 16:01:00,
2013-06-20 10:11:00,57.0,13.0,-100.00,NNW,329,12.0,16.0,17,0.00,,,-99.99,,2013-06-20 16:11:00,
2013-06-20 10:22:00,59.0,17.0,-100.00,NNW,329,12.0,17.0,19,0.00,,,-99.99,,2013-06-20 16:22:00,
2013-06-20 10:33:00,58.0,13.0,-100.00,NNW,329,13.0,18.0,16,0.00,,,-99.99,,2013-06-20 16:33:00,
2013-06-20 10:42:00,60.0,16.0,-100.00,NNW,329,14.0,20.0,18,0.00,,,-99.99,,2013-06-20 16:42:00,
2013-06-20 10:52:00,60.0,14.0,-100.00,NNW,329,12.0,20.0,16,0.00,,,-99.99,,2013-06-20 16:52:00,
2013-06-20 11:01:00,62.0,14.0,-100.00,NNW,329,12.0,19.0,15,0.00,,,-99.99,,2013-06-20 17:01:00,
2013-06-20 11:11:00,63.0,17.0,-100.00,NNW,329,11.0,16.0,17,0.00,,,-99.99,,2013-06-20 17:11:00,
2013-06-20 11:22:00,62.0,16.0,-100.00,NNW,329,11.0,16.0,16,0.00,,,-99.99,,2013-06-20 17:22:00,
2013-06-20 11:32:00,63.0,14.0,-100.00,NNW,329,10.0,15.0,15,0.00,,,-99.99,,2013-06-20 17:32:00,
2013-06-20 11:43:00,64.0,14.0,-100.00,NNW,328,10.0,16.0,14,0.00,,,-99.99,,2013-06-20 17:43:00,
2013-06-20 11:52:00,65.0,18.0,-100.00,NNW,329,7.0,11.0,16,0.00,,,-99.99,,2013-06-20 17:52:00,
2013-06-20 12:01:00,65.0,15.0,-100.00,NNW,329,6.0,11.0,14,0.00,,,-99.99,,2013-06-20 18:01:00,
2013-06-20 12:11:00,66.0,16.0,-100.00,NNW,329,5.0,13.0,14,0.00,,,-99.99,,2013-06-20 18:11:00,
2013-06-20 12:22:00,67.0,15.0,-100.00,NNW,329,7.0,13.0,13,0.00,,,-99.99,,2013-06-20 18:22:00,
2013-06-20 12:33:00,67.0,17.0,-100.00,NNW,329,7.0,13.0,14,0.00,,,-99.99,,2013-06-20 18:33:00,
2013-06-20 12:43:00,67.0,15.0,-100.00,NNW,329,6.0,10.0,14,0.00,,,-99.99,,2013-06-20 18:43:00,
2013-06-20 12:53:00,67.0,15.0,-100.00,NNW,329,9.0,17.0,13,0.00,,,-99.99,,2013-06-20 18:53:00,
2013-06-20 13:01:00,68.0,17.0,-100.00,NNW,329,4.0,12.0,14,0.00,,,-99.99,,2013-06-20 19:01:00,
2013-06-20 13:11:00,68.0,17.0,-100.00,NNW,329,7.0,21.0,14,0.00,,,-99.99,,2013-06-20 19:11:00,
2013-06-20 13:22:00,69.0,20.0,-100.00,NNW,329,11.0,20.0,15,0.00,,,-99.99,,2013-06-20 19:22:00,
2013-06-20 13:34:00,69.0,20.0,-100.00,NNW,329,14.0,23.0,15,0.00,,,-99.99,,2013-06-20 19:34:00,
2013-06-20 13:43:00,69.0,21.0,-100.00,NNW,329,14.0,22.0,16,0.00,,,-99.99,,2013-06-20 19:43:00,
2013-06-20 13:52:00,70.0,19.0,-100.00,NNW,329,14.0,23.0,15,0.00,,,-99.99,,2013-06-20 19:52:00,
2013-06-20 14:02:00,69.0,20.0,-100.00,NNW,329,12.0,21.0,15,0.00,,,-99.99,,2013-06-20 20:02:00,
2013-06-20 14:11:00,69.0,22.0,-100.00,NNW,329,14.0,26.0,17,0.00,,,-99.99,,2013-06-20 20:11:00,
2013-06-20 14:42:00,69.0,24.0,-100.00,NNW,329,13.0,20.0,18,0.00,,,-99.99,,2013-06-20 20:42:00,